Time;durP1;ratioP1;P1;durP2;ratioP2;P2;SDS_P1;SDS_P2;PMS_P1;PMS_P2;Temp;Humidity;BMP_temperature;BMP_pressure;BME280_temperature;BME280_humidity;BME280_pressure;Samples;Min_cycle;Max_cycle;Signal;HPM_P1;HPM_P2
2023/03/17 00:01:55;;;;;;;13.10;7.33;;;10.40;90.80;;;;;;6061326;23;20177;-73
2023/03/17 00:04:26;;;;;;;12.83;7.23;;;10.40;90.80;;;;;;6062508;23;20178;-72
2023/03/17 00:06:56;;;;;;;11.17;6.83;;;10.40;90.80;;;;;;6066237;23;20539;-72
2023/03/17 00:09:25;;;;;;;12.50;6.73;;;10.30;90.70;;;;;;6064153;23;20186;-73
2023/03/17 00:11:53;;;;;;;13.23;6.93;;;10.30;90.70;;;;;;6064909;23;20174;-73
2023/03/17 00:14:21;;;;;;;11.73;6.90;;;10.30;90.70;;;;;;6062012;23;20199;-73
2023/03/17 00:16:52;;;;;;;14.40;7.67;;;10.30;90.70;;;;;;6064868;23;20659;-73
2023/03/17 00:19:26;;;;;;;13.40;6.87;;;10.30;90.60;;;;;;6065601;23;20221;-73
2023/03/17 00:21:57;;;;;;;13.37;6.87;;;10.30;90.60;;;;;;6063860;23;20166;-73
2023/03/17 00:24:26;;;;;;;12.73;7.27;;;10.20;90.60;;;;;;6064235;23;20173;-72
2023/03/17 00:26:54;;;;;;;15.27;8.10;;;10.30;90.60;;;;;;6064885;23;20175;-72
2023/03/17 00:29:23;;;;;;;12.47;7.53;;;10.30;90.50;;;;;;6063744;23;20672;-72
2023/03/17 00:31:51;;;;;;;14.83;7.60;;;10.30;90.50;;;;;;6062335;23;20186;-72
2023/03/17 00:34:20;;;;;;;15.20;8.10;;;10.20;90.50;;;;;;6064932;23;20548;-72
2023/03/17 00:36:50;;;;;;;10.30;6.10;;;10.20;90.50;;;;;;6065648;23;20207;-72
2023/03/17 00:39:20;;;;;;;16.00;7.10;;;10.20;90.40;;;;;;6065377;23;20237;-72
2023/03/17 00:41:48;;;;;;;15.13;7.40;;;10.10;90.40;;;;;;6064691;23;20549;-73
2023/03/17 00:44:17;;;;;;;17.13;7.70;;;10.10;90.30;;;;;;6065672;23;20226;-72
2023/03/17 00:46:45;;;;;;;12.80;6.93;;;10.10;90.30;;;;;;6063173;23;20234;-72
2023/03/17 00:49:16;;;;;;;13.90;6.97;;;10.10;90.30;;;;;;6064826;23;20201;-71
2023/03/17 00:51:49;;;;;;;13.40;6.70;;;10.10;90.20;;;;;;6063512;23;20549;-73
2023/03/17 00:54:19;;;;;;;13.97;6.83;;;10.00;90.20;;;;;;6065656;23;20624;-72
2023/03/17 00:56:49;;;;;;;15.10;7.33;;;10.00;90.30;;;;;;6065445;23;20198;-73
2023/03/17 00:59:26;;;;;;;13.97;7.30;;;10.00;90.20;;;;;;6063593;23;20171;-72
2023/03/17 01:01:55;;;;;;;13.03;6.50;;;9.90;90.20;;;;;;6065525;23;20220;-72
2023/03/17 01:04:24;;;;;;;15.03;7.20;;;9.90;90.20;;;;;;6065552;23;20182;-72
2023/03/17 01:06:53;;;;;;;13.67;7.23;;;9.90;90.20;;;;;;6065809;23;20552;-73
2023/03/17 01:09:26;;;;;;;11.00;6.27;;;9.80;90.20;;;;;;6066017;23;20206;-72
2023/03/17 01:11:55;;;;;;;11.40;6.47;;;9.80;90.10;;;;;;6065779;23;20201;-72
2023/03/17 01:14:24;;;;;;;12.97;6.87;;;9.80;90.10;;;;;;6066242;23;20617;-73
2023/03/17 01:16:53;;;;;;;13.53;6.37;;;9.70;90.10;;;;;;6064408;23;20174;-72
2023/03/17 01:19:22;;;;;;;12.47;6.93;;;9.70;90.10;;;;;;6064823;23;20185;-72
2023/03/17 01:21:51;;;;;;;12.13;6.23;;;9.70;90.10;;;;;;6063894;23;20175;-72
2023/03/17 01:24:19;;;;;;;12.50;7.10;;;9.70;90.10;;;;;;6063627;23;20245;-73
2023/03/17 01:26:49;;;;;;;14.50;7.30;;;9.70;90.00;;;;;;6063104;23;20250;-74
2023/03/17 01:29:18;;;;;;;13.07;6.73;;;9.60;90.00;;;;;;6063644;23;20302;-74
2023/03/17 01:31:46;;;;;;;12.40;6.73;;;9.60;90.00;;;;;;6065195;23;20554;-72
2023/03/17 01:34:15;;;;;;;12.40;6.90;;;9.60;90.00;;;;;;6063911;23;20201;-73
2023/03/17 01:36:43;;;;;;;11.60;6.27;;;9.50;90.00;;;;;;6062138;23;20170;-73
2023/03/17 01:39:12;;;;;;;12.37;6.67;;;9.50;90.00;;;;;;6062731;23;20497;-74
2023/03/17 01:41:40;;;;;;;11.17;6.07;;;9.50;90.00;;;;;;6064388;23;20478;-73
2023/03/17 01:44:17;;;;;;;12.80;6.60;;;9.40;89.90;;;;;;6064010;23;20636;-72
2023/03/17 01:46:46;;;;;;;14.23;7.40;;;9.40;90.00;;;;;;6054653;23;20162;-73
2023/03/17 01:49:28;;;;;;;11.10;6.40;;;9.40;90.00;;;;;;6057045;23;20175;-72
2023/03/17 01:52:04;;;;;;;14.57;6.43;;;9.30;90.00;;;;;;6065089;23;20166;-73
2023/03/17 01:54:39;;;;;;;14.27;6.20;;;9.30;89.90;;;;;;6063087;23;20159;-75
2023/03/17 01:57:12;;;;;;;11.23;6.37;;;9.30;90.00;;;;;;6053803;23;20223;-72
2023/03/17 01:59:46;;;;;;;11.63;6.47;;;9.20;90.10;;;;;;6060139;23;20163;-72
2023/03/17 02:02:19;;;;;;;13.37;6.60;;;9.20;90.10;;;;;;6063766;23;20222;-72
2023/03/17 02:04:48;;;;;;;16.00;6.53;;;9.10;90.00;;;;;;6065002;23;20163;-73
2023/03/17 02:07:16;;;;;;;12.40;6.30;;;9.10;90.00;;;;;;6064142;23;20226;-72
2023/03/17 02:09:45;;;;;;;11.20;6.20;;;9.00;90.10;;;;;;6064845;23;20217;-72
2023/03/17 02:12:14;;;;;;;10.60;6.37;;;9.00;90.10;;;;;;6063356;23;20222;-73
2023/03/17 02:14:44;;;;;;;13.17;7.17;;;8.90;90.20;;;;;;6062921;23;20229;-72
2023/03/17 02:17:13;;;;;;;12.70;6.87;;;8.90;90.40;;;;;;6065094;23;20191;-71
2023/03/17 02:19:41;;;;;;;12.93;6.43;;;8.80;90.40;;;;;;6063002;23;20174;-72
2023/03/17 02:22:12;;;;;;;10.87;6.07;;;8.80;90.40;;;;;;6064265;23;20178;-72
2023/03/17 02:24:44;;;;;;;14.47;6.87;;;8.70;90.50;;;;;;6061849;23;20167;-72
2023/03/17 02:27:17;;;;;;;11.17;5.80;;;8.60;90.60;;;;;;6063120;23;20162;-74
2023/03/17 02:29:46;;;;;;;10.40;6.10;;;8.60;90.70;;;;;;6061915;23;20186;-72
2023/03/17 02:32:17;;;;;;;12.83;6.03;;;8.50;90.70;;;;;;6065425;23;20182;-72
2023/03/17 02:34:45;;;;;;;12.03;6.27;;;8.50;90.70;;;;;;6063292;23;20159;-73
2023/03/17 02:37:16;;;;;;;11.53;6.17;;;8.50;90.70;;;;;;6063770;23;20185;-71
2023/03/17 02:39:45;;;;;;;9.60;5.70;;;8.40;90.60;;;;;;6063068;23;20171;-72
2023/03/17 02:42:14;;;;;;;12.83;6.50;;;8.40;90.70;;;;;;6065096;23;20487;-72
2023/03/17 02:44:42;;;;;;;13.83;6.60;;;8.40;90.70;;;;;;6063186;23;20182;-72
2023/03/17 02:47:11;;;;;;;12.93;6.17;;;8.40;90.70;;;;;;6065135;23;20178;-72
2023/03/17 02:49:40;;;;;;;10.23;5.70;;;8.30;91.00;;;;;;6062381;23;20233;-72
2023/03/17 02:52:09;;;;;;;13.37;6.17;;;8.30;90.60;;;;;;6065321;23;20178;-72
2023/03/17 02:54:39;;;;;;;17.10;6.70;;;8.30;90.70;;;;;;6063116;23;20225;-74
2023/03/17 02:57:07;;;;;;;13.33;6.60;;;8.30;90.70;;;;;;6065360;23;20252;-72
2023/03/17 02:59:36;;;;;;;12.17;6.87;;;8.20;90.60;;;;;;6063093;23;20500;-72
2023/03/17 03:02:04;;;;;;;14.67;6.97;;;8.20;90.60;;;;;;6064123;23;20211;-72
2023/03/17 03:04:33;;;;;;;12.57;6.67;;;8.20;90.60;;;;;;6062230;23;20185;-72
2023/03/17 03:07:01;;;;;;;13.73;6.67;;;8.20;90.60;;;;;;6064199;23;20174;-72
2023/03/17 03:09:30;;;;;;;12.27;6.67;;;8.20;90.60;;;;;;6064487;23;20178;-72
2023/03/17 03:12:00;;;;;;;13.57;7.10;;;8.20;90.60;;;;;;6062102;23;20675;-72
2023/03/17 03:14:28;;;;;;;14.93;7.20;;;8.20;90.60;;;;;;6064105;23;20718;-72
2023/03/17 03:16:57;;;;;;;11.23;5.77;;;8.10;90.60;;;;;;6063670;23;20253;-72
2023/03/17 03:19:25;;;;;;;13.83;6.93;;;8.10;90.60;;;;;;6064701;23;20178;-72
2023/03/17 03:21:54;;;;;;;12.95;7.18;;;8.10;90.50;;;;;;6062217;23;20877;-72
2023/03/17 03:24:23;;;;;;;11.90;6.27;;;8.10;90.60;;;;;;6061505;23;20249;-73
2023/03/17 03:26:51;;;;;;;12.53;6.37;;;8.10;90.70;;;;;;6060550;23;20230;-73
2023/03/17 03:29:21;;;;;;;12.43;6.47;;;8.10;90.60;;;;;;6060600;23;20648;-73
2023/03/17 03:31:49;;;;;;;10.27;5.97;;;8.10;90.60;;;;;;6063669;23;20652;-73
2023/03/17 03:34:18;;;;;;;14.13;6.50;;;8.00;90.60;;;;;;6064031;23;20175;-72
2023/03/17 03:36:49;;;;;;;11.80;5.77;;;8.10;90.60;;;;;;6062758;23;20249;-73
2023/03/17 03:39:18;;;;;;;14.50;6.87;;;8.00;90.60;;;;;;6061773;23;20225;-72
2023/03/17 03:41:46;;;;;;;9.33;6.10;;;8.00;90.60;;;;;;6064953;23;20229;-72
2023/03/17 03:44:14;;;;;;;14.70;6.17;;;8.00;90.60;;;;;;6063671;23;20553;-72
2023/03/17 03:46:44;;;;;;;12.97;6.57;;;8.00;90.60;;;;;;6061347;23;20176;-72
2023/03/17 03:49:12;;;;;;;12.20;7.20;;;8.00;90.50;;;;;;6064778;23;20185;-72
2023/03/17 03:51:41;;;;;;;14.13;6.80;;;8.00;90.50;;;;;;6064905;23;20265;-72
2023/03/17 03:54:09;;;;;;;19.87;8.30;;;7.90;90.90;;;;;;6064440;23;20242;-72
2023/03/17 03:56:38;;;;;;;14.23;7.07;;;8.00;90.50;;;;;;6062221;23;20201;-73
2023/03/17 03:59:06;;;;;;;14.03;7.17;;;7.90;90.50;;;;;;6060931;23;20231;-72
2023/03/17 04:01:34;;;;;;;11.47;6.53;;;7.90;90.50;;;;;;6064563;23;20229;-74
2023/03/17 04:04:04;;;;;;;13.43;6.90;;;7.90;90.40;;;;;;6061266;23;20730;-72
2023/03/17 04:06:33;;;;;;;11.97;6.33;;;7.90;90.40;;;;;;6061821;23;20559;-73
2023/03/17 04:09:02;;;;;;;13.47;7.17;;;7.90;90.40;;;;;;6063073;23;20174;-73
2023/03/17 04:11:31;;;;;;;14.33;6.57;;;7.90;90.40;;;;;;6062877;23;20268;-72
2023/03/17 04:13:59;;;;;;;10.83;6.17;;;7.90;90.40;;;;;;6062191;23;20180;-72
2023/03/17 04:16:28;;;;;;;13.33;6.43;;;7.90;90.30;;;;;;6062997;23;20181;-72
2023/03/17 04:18:57;;;;;;;11.90;6.37;;;7.80;90.30;;;;;;6065126;23;20581;-72
2023/03/17 04:21:27;;;;;;;12.10;6.73;;;7.80;90.30;;;;;;6065914;23;20280;-72
2023/03/17 04:23:55;;;;;;;12.67;6.80;;;7.80;90.30;;;;;;6066343;23;20177;-72
2023/03/17 04:26:23;;;;;;;11.30;6.37;;;7.80;90.30;;;;;;6065036;23;20175;-72
2023/03/17 04:28:52;;;;;;;12.83;6.27;;;7.80;90.30;;;;;;6065406;23;20210;-73
2023/03/17 04:31:20;;;;;;;14.03;6.73;;;7.80;90.30;;;;;;6065990;23;20652;-72
2023/03/17 04:33:49;;;;;;;13.57;6.80;;;7.80;90.30;;;;;;6064329;23;20170;-73
2023/03/17 04:36:19;;;;;;;12.77;6.87;;;7.80;90.30;;;;;;6064826;23;20235;-72
2023/03/17 04:38:49;;;;;;;13.07;7.53;;;7.80;90.30;;;;;;6063940;23;20201;-74
2023/03/17 04:41:18;;;;;;;15.60;7.10;;;7.80;90.30;;;;;;6064938;23;20229;-72
2023/03/17 04:43:46;;;;;;;14.43;7.20;;;7.80;90.30;;;;;;6064365;23;20182;-74
2023/03/17 04:46:15;;;;;;;12.20;6.70;;;7.80;90.30;;;;;;6066358;23;20238;-72
2023/03/17 04:48:43;;;;;;;14.27;7.63;;;7.80;90.30;;;;;;6062167;23;20232;-72
2023/03/17 04:51:12;;;;;;;12.80;7.43;;;7.80;90.30;;;;;;6066224;23;20201;-72
2023/03/17 04:53:40;;;;;;;13.47;7.30;;;7.80;90.30;;;;;;6066325;23;20556;-72
2023/03/17 04:56:10;;;;;;;18.70;8.33;;;7.80;90.30;;;;;;6066336;23;20213;-72
2023/03/17 04:58:39;;;;;;;13.03;8.00;;;7.80;90.30;;;;;;6063362;23;20198;-73
2023/03/17 05:01:07;;;;;;;15.37;7.50;;;7.90;90.30;;;;;;6063798;23;20249;-72
2023/03/17 05:03:36;;;;;;;17.97;7.93;;;7.80;90.30;;;;;;6066331;23;20186;-73
2023/03/17 05:06:05;;;;;;;16.37;7.90;;;7.90;90.30;;;;;;6063877;23;20637;-72
2023/03/17 05:08:34;;;;;;;15.73;8.27;;;7.90;90.40;;;;;;6063154;23;20186;-73
2023/03/17 05:11:03;;;;;;;14.50;8.23;;;7.90;90.40;;;;;;6061578;23;20181;-72
2023/03/17 05:13:33;;;;;;;17.33;8.63;;;7.90;90.40;;;;;;6063855;23;20179;-72
2023/03/17 05:16:01;;;;;;;18.87;8.53;;;7.90;90.40;;;;;;6064036;23;20178;-73
2023/03/17 05:18:30;;;;;;;13.23;8.07;;;8.00;90.50;;;;;;6065899;23;20178;-71
2023/03/17 05:20:58;;;;;;;15.47;8.40;;;8.00;90.50;;;;;;6066746;23;20174;-72
2023/03/17 05:23:27;;;;;;;15.23;8.03;;;8.00;90.60;;;;;;6067429;23;20646;-72
2023/03/17 05:25:55;;;;;;;14.53;7.57;;;8.00;90.70;;;;;;6064964;23;20177;-73
2023/03/17 05:28:25;;;;;;;13.03;6.97;;;8.10;90.70;;;;;;6064361;23;20178;-72
2023/03/17 05:30:55;;;;;;;16.33;8.23;;;8.10;90.70;;;;;;6062497;23;21063;-72
2023/03/17 05:33:24;;;;;;;15.97;8.10;;;8.10;90.80;;;;;;6064391;23;20279;-73
2023/03/17 05:35:52;;;;;;;16.07;7.87;;;8.20;90.90;;;;;;6064318;23;20181;-72
2023/03/17 05:38:21;;;;;;;14.37;7.27;;;8.20;91.00;;;;;;6065235;23;20655;-72
2023/03/17 05:40:51;;;;;;;12.53;7.27;;;8.20;91.00;;;;;;6067435;23;20174;-72
2023/03/17 05:43:21;;;;;;;14.27;7.43;;;8.30;91.10;;;;;;6068022;23;20597;-72
2023/03/17 05:45:49;;;;;;;13.73;7.63;;;8.30;91.10;;;;;;6065102;23;20493;-73
2023/03/17 05:48:19;;;;;;;13.43;7.50;;;8.30;91.20;;;;;;6068012;23;20185;-72
2023/03/17 05:50:48;;;;;;;14.50;7.07;;;8.30;91.20;;;;;;6067441;23;20180;-73
2023/03/17 05:53:17;;;;;;;11.63;6.60;;;8.40;91.20;;;;;;6065544;23;20507;-73
2023/03/17 05:55:45;;;;;;;15.87;7.20;;;8.40;91.20;;;;;;6063906;23;20178;-72
2023/03/17 05:58:15;;;;;;;12.43;7.27;;;8.50;91.30;;;;;;6065717;23;20617;-73
2023/03/17 06:00:44;;;;;;;14.10;7.17;;;8.50;91.30;;;;;;6065444;23;20629;-72
2023/03/17 06:03:12;;;;;;;12.97;7.77;;;8.60;91.30;;;;;;6064254;23;20178;-72
2023/03/17 06:05:42;;;;;;;13.90;7.30;;;8.60;91.30;;;;;;6066671;23;20510;-72
2023/03/17 06:08:10;;;;;;;20.27;7.83;;;8.70;91.40;;;;;;6067331;23;20178;-72
2023/03/17 06:10:40;;;;;;;15.63;8.30;;;8.80;91.40;;;;;;6065876;23;20175;-72
2023/03/17 06:13:08;;;;;;;15.27;8.20;;;8.80;91.40;;;;;;6067962;23;20198;-71
2023/03/17 06:15:36;;;;;;;17.53;8.03;;;8.90;91.40;;;;;;6065425;23;20277;-72
2023/03/17 06:18:05;;;;;;;11.90;6.83;;;8.90;91.50;;;;;;6065844;23;20181;-72
2023/03/17 06:20:34;;;;;;;20.17;8.53;;;9.00;91.50;;;;;;6066600;23;20233;-72
2023/03/17 06:23:05;;;;;;;15.03;7.70;;;9.00;91.50;;;;;;6065380;23;20179;-71
2023/03/17 06:25:34;;;;;;;15.13;6.87;;;9.10;91.50;;;;;;6065071;23;20162;-72
2023/03/17 06:28:04;;;;;;;13.40;7.40;;;9.10;91.50;;;;;;6067256;23;20516;-72
2023/03/17 06:30:33;;;;;;;11.70;6.40;;;9.20;91.60;;;;;;6064716;23;20186;-71
2023/03/17 06:33:02;;;;;;;13.93;6.63;;;9.20;91.60;;;;;;6064224;23;20202;-73
2023/03/17 06:35:31;;;;;;;13.07;7.45;;;9.30;91.60;;;;;;6065903;23;20444;-72
2023/03/17 06:38:02;;;;;;;13.63;6.77;;;9.40;91.80;;;;;;6066944;23;20178;-72
2023/03/17 06:40:33;;;;;;;10.77;6.30;;;9.40;91.70;;;;;;6062739;23;20181;-73
2023/03/17 06:43:01;;;;;;;10.70;6.47;;;9.50;91.30;;;;;;6064631;23;20166;-73
2023/03/17 06:45:32;;;;;;;10.73;5.90;;;9.50;91.00;;;;;;6065052;23;20554;-73
2023/03/17 06:48:01;;;;;;;13.83;6.70;;;9.60;90.80;;;;;;6066250;23;20539;-73
2023/03/17 06:50:29;;;;;;;11.37;5.93;;;9.70;90.70;;;;;;6066576;23;20528;-73
2023/03/17 06:52:57;;;;;;;11.07;6.30;;;9.80;90.60;;;;;;6064850;23;20195;-73
2023/03/17 06:55:26;;;;;;;12.00;6.63;;;9.80;90.40;;;;;;6065129;23;20178;-73
2023/03/17 06:57:57;;;;;;;12.67;6.50;;;9.90;90.30;;;;;;6065148;23;20194;-73
2023/03/17 07:00:27;;;;;;;7.70;4.47;;;9.90;90.10;;;;;;6066332;23;20163;-72
2023/03/17 07:02:55;;;;;;;7.73;3.90;;;9.90;85.20;;;;;;6066489;23;20230;-72
2023/03/17 07:05:23;;;;;;;5.70;2.50;;;10.00;84.20;;;;;;6065172;23;20262;-73
2023/03/17 07:07:52;;;;;;;4.07;2.00;;;10.10;81.90;;;;;;6063614;23;20171;-72
2023/03/17 07:10:21;;;;;;;3.60;1.90;;;10.10;80.70;;;;;;6066264;23;20628;-72
2023/03/17 07:12:50;;;;;;;3.23;1.83;;;10.20;76.40;;;;;;6066474;23;20209;-73
2023/03/17 07:15:20;;;;;;;3.10;1.97;;;10.30;75.10;;;;;;6064658;23;20178;-74
2023/03/17 07:17:49;;;;;;;4.10;1.60;;;10.30;72.90;;;;;;6066055;23;20163;-73
2023/03/17 07:20:17;;;;;;;4.30;2.10;;;10.40;72.80;;;;;;6064072;23;20174;-73
2023/03/17 07:22:46;;;;;;;5.30;2.50;;;10.60;75.10;;;;;;6065668;23;20486;-73
2023/03/17 07:25:14;;;;;;;6.37;1.87;;;10.80;76.40;;;;;;6064656;23;20174;-74
2023/03/17 07:27:43;;;;;;;3.43;1.70;;;10.90;75.90;;;;;;6060206;23;20632;-73
2023/03/17 07:30:13;;;;;;;3.10;1.93;;;11.00;72.80;;;;;;6066629;23;20553;-73
2023/03/17 07:32:43;;;;;;;7.20;2.57;;;11.10;72.50;;;;;;6065089;23;20187;-74
2023/03/17 07:35:13;;;;;;;4.37;2.33;;;11.20;73.00;;;;;;6066717;23;20484;-73
2023/03/17 07:37:43;;;;;;;5.00;2.27;;;11.40;73.60;;;;;;6058581;23;20175;-74
2023/03/17 07:40:12;;;;;;;5.53;2.47;;;11.50;73.60;;;;;;6064194;23;20245;-73
2023/03/17 07:42:40;;;;;;;4.50;2.27;;;11.60;74.00;;;;;;6067370;23;20247;-74
2023/03/17 07:45:10;;;;;;;5.03;2.80;;;11.70;73.60;;;;;;6059146;23;20230;-73
2023/03/17 07:47:38;;;;;;;4.73;2.57;;;11.70;73.50;;;;;;6064975;23;20444;-73
2023/03/17 07:50:09;;;;;;;3.90;2.10;;;11.80;72.90;;;;;;6061728;23;20656;-74
2023/03/17 07:52:38;;;;;;;6.20;2.30;;;11.80;73.30;;;;;;6064242;23;20189;-74
2023/03/17 07:55:09;;;;;;;5.63;2.13;;;11.90;70.80;;;;;;6063497;23;20249;-73
2023/03/17 07:57:37;;;;;;;5.17;2.67;;;12.00;71.00;;;;;;6063518;23;20250;-74
2023/03/17 08:00:08;;;;;;;5.47;2.30;;;12.10;70.10;;;;;;6063118;23;20625;-73
2023/03/17 08:02:37;;;;;;;6.33;2.30;;;12.10;70.70;;;;;;6063815;23;20166;-73
2023/03/17 08:05:08;;;;;;;7.30;3.10;;;12.20;69.80;;;;;;6062936;23;20170;-74
2023/03/17 08:07:37;;;;;;;3.97;2.10;;;12.30;69.70;;;;;;6062706;23;20214;-73
2023/03/17 08:10:07;;;;;;;4.40;2.50;;;12.40;69.80;;;;;;6064689;23;20183;-73
2023/03/17 08:12:36;;;;;;;6.47;3.00;;;12.40;68.00;;;;;;6062468;23;20182;-74
2023/03/17 08:15:05;;;;;;;5.47;3.07;;;12.50;67.80;;;;;;6062961;23;20235;-74
2023/03/17 08:17:38;;;;;;;5.77;2.67;;;12.60;68.40;;;;;;6065226;23;20170;-73
2023/03/17 08:20:10;;;;;;;5.37;2.57;;;12.70;68.30;;;;;;6062777;23;20178;-73
2023/03/17 08:22:38;;;;;;;4.67;2.50;;;12.80;68.70;;;;;;6064204;23;20238;-74
2023/03/17 08:25:08;;;;;;;6.97;2.53;;;12.90;66.70;;;;;;6063336;23;20205;-74
2023/03/17 08:27:36;;;;;;;3.50;2.00;;;12.90;66.10;;;;;;6063404;23;20509;-73
2023/03/17 08:30:06;;;;;;;8.73;2.70;;;13.00;65.30;;;;;;6059923;23;20242;-73
2023/03/17 08:32:35;;;;;;;4.97;2.83;;;13.10;65.90;;;;;;6064744;23;20174;-73
2023/03/17 08:35:05;;;;;;;4.90;2.87;;;13.10;65.50;;;;;;6058988;23;20214;-73
2023/03/17 08:37:36;;;;;;;4.30;3.00;;;13.10;65.40;;;;;;6062617;23;20171;-73
2023/03/17 08:40:08;;;;;;;5.63;2.90;;;13.20;65.50;;;;;;6062423;23;20163;-73
2023/03/17 08:42:37;;;;;;;7.13;2.90;;;13.30;65.50;;;;;;6063373;23;20167;-73
2023/03/17 08:45:06;;;;;;;5.27;2.77;;;13.20;65.10;;;;;;6059682;23;20178;-73
2023/03/17 08:47:35;;;;;;;5.23;2.33;;;13.30;64.90;;;;;;6060716;23;20205;-74
2023/03/17 08:50:05;;;;;;;5.63;2.83;;;13.30;63.80;;;;;;6061747;23;20175;-74
2023/03/17 08:52:35;;;;;;;3.33;2.10;;;13.30;61.50;;;;;;6061531;23;20158;-74
2023/03/17 08:55:05;;;;;;;4.23;2.10;;;13.40;62.50;;;;;;6061699;23;20242;-73
2023/03/17 08:57:34;;;;;;;6.57;3.00;;;13.40;62.50;;;;;;6058638;23;20265;-73
2023/03/17 09:00:09;;;;;;;5.53;3.10;;;13.40;63.00;;;;;;6060836;23;20202;-74
2023/03/17 09:02:38;;;;;;;5.83;2.67;;;13.40;63.30;;;;;;6062735;23;20166;-73
2023/03/17 09:05:08;;;;;;;6.17;3.40;;;13.40;60.60;;;;;;6062449;23;20245;-73
2023/03/17 09:07:38;;;;;;;6.30;3.30;;;13.40;61.20;;;;;;6060633;23;20198;-74
2023/03/17 09:10:09;;;;;;;6.80;3.07;;;13.40;60.20;;;;;;6063312;23;20203;-73
2023/03/17 09:12:38;;;;;;;7.13;3.40;;;13.30;59.90;;;;;;6062079;23;20616;-74
2023/03/17 09:15:07;;;;;;;5.73;3.30;;;13.40;59.80;;;;;;6062492;23;20576;-74
2023/03/17 09:17:36;;;;;;;8.40;3.60;;;13.50;61.00;;;;;;6064723;23;20493;-73
2023/03/17 09:20:06;;;;;;;6.80;4.03;;;13.50;59.50;;;;;;6065259;23;20554;-75
2023/03/17 09:22:34;;;;;;;7.00;3.43;;;13.60;61.00;;;;;;6061913;23;20226;-74
2023/03/17 09:25:19;;;;;;;5.80;3.60;;;13.70;60.30;;;;;;6063632;23;20174;-74
2023/03/17 09:27:48;;;;;;;6.13;3.07;;;13.80;59.50;;;;;;6064710;23;20532;-73
2023/03/17 09:30:17;;;;;;;5.23;2.87;;;13.80;59.10;;;;;;6064828;23;20175;-74
2023/03/17 09:32:46;;;;;;;9.17;2.87;;;13.90;60.00;;;;;;6065451;23;20175;-73
2023/03/17 09:35:14;;;;;;;5.27;2.87;;;14.00;60.00;;;;;;6065706;23;20202;-72
2023/03/17 09:37:42;;;;;;;6.60;2.70;;;14.10;59.20;;;;;;6062567;23;20189;-74
2023/03/17 09:40:16;;;;;;;6.70;3.30;;;14.20;59.20;;;;;;6064527;23;20633;-74
2023/03/17 09:42:59;;;;;;;7.90;2.67;;;14.30;59.00;;;;;;6063685;23;20171;-74
2023/03/17 09:45:33;;;;;;;5.53;2.10;;;14.40;58.20;;;;;;6064462;23;20689;-74
2023/03/17 09:48:16;;;;;;;5.77;2.93;;;14.40;57.80;;;;;;6063570;23;20225;-75
2023/03/17 09:50:49;;;;;;;4.30;2.23;;;14.50;57.00;;;;;;6065273;23;20174;-73
2023/03/17 09:53:20;;;;;;;4.53;2.30;;;14.50;55.50;;;;;;6064075;23;20231;-74
2023/03/17 09:55:54;;;;;;;5.23;2.10;;;14.50;55.70;;;;;;6065773;23;20219;-75
2023/03/17 09:58:30;;;;;;;5.63;2.30;;;14.50;55.50;;;;;;6064637;23;20246;-75
2023/03/17 10:01:00;;;;;;;5.33;2.30;;;14.50;55.40;;;;;;6065813;23;20213;-74
2023/03/17 10:03:28;;;;;;;5.70;3.10;;;14.50;55.70;;;;;;6064597;23;20182;-73
2023/03/17 10:06:12;;;;;;;7.27;3.03;;;14.50;55.10;;;;;;6062337;23;20178;-75
2023/03/17 10:08:48;;;;;;;5.53;3.00;;;14.50;55.70;;;;;;6064301;23;20210;-74
2023/03/17 10:11:26;;;;;;;5.00;2.47;;;14.50;55.80;;;;;;6065844;23;20462;-74
2023/03/17 10:14:02;;;;;;;4.97;2.80;;;14.50;55.30;;;;;;6064111;23;20194;-75
2023/03/17 10:16:40;;;;;;;7.93;2.93;;;14.50;55.80;;;;;;6063690;23;20167;-75
2023/03/17 10:19:19;;;;;;;4.77;2.77;;;14.50;56.50;;;;;;6064798;23;20210;-74
2023/03/17 10:21:53;;;;;;;5.50;2.80;;;14.60;56.80;;;;;;6063569;23;20296;-73
2023/03/17 10:24:24;;;;;;;6.32;3.13;;;14.70;56.20;;;;;;6065576;23;20443;-73
2023/03/17 10:26:56;;;;;;;6.87;2.57;;;14.70;56.50;;;;;;6062541;23;20471;-73
2023/03/17 10:29:26;;;;;;;6.63;3.20;;;14.80;57.10;;;;;;6060456;23;20167;-74
2023/03/17 10:31:54;;;;;;;7.10;3.03;;;14.90;57.00;;;;;;6063263;23;20175;-72
2023/03/17 10:34:27;;;;;;;6.83;2.87;;;15.00;57.20;;;;;;6065909;23;20270;-74
2023/03/17 10:37:01;;;;;;;5.57;2.83;;;15.10;55.90;;;;;;6066256;23;20285;-72
2023/03/17 10:39:29;;;;;;;6.27;2.80;;;15.20;56.10;;;;;;6066340;23;20162;-73
2023/03/17 10:42:08;;;;;;;5.33;2.70;;;15.30;56.40;;;;;;6067212;23;20162;-74
2023/03/17 10:44:46;;;;;;;5.47;2.63;;;15.30;55.70;;;;;;6067133;23;20159;-75
2023/03/17 10:47:31;;;;;;;9.50;3.23;;;15.40;56.00;;;;;;6064958;23;20163;-74
2023/03/17 10:50:04;;;;;;;7.53;2.60;;;15.40;55.50;;;;;;6064346;23;20170;-74
2023/03/17 10:52:39;;;;;;;4.93;2.70;;;15.50;55.20;;;;;;6065695;23;20159;-73
2023/03/17 10:55:09;;;;;;;5.17;2.83;;;15.40;52.90;;;;;;6064977;23;20186;-72
2023/03/17 10:58:03;;;;;;;7.47;2.83;;;15.50;54.40;;;;;;6063007;23;20257;-75
2023/03/17 11:00:35;;;;;;;3.63;2.03;;;15.50;52.00;;;;;;6061883;23;20297;-74
2023/03/17 11:03:15;;;;;;;4.07;1.90;;;15.50;52.40;;;;;;6064891;23;20241;-73
2023/03/17 11:05:55;;;;;;;4.00;2.27;;;15.50;53.20;;;;;;6065093;23;20217;-73
2023/03/17 11:08:24;;;;;;;3.53;1.77;;;15.50;53.50;;;;;;6064614;23;20167;-74
2023/03/17 11:10:56;;;;;;;6.43;2.17;;;15.50;53.60;;;;;;6060473;23;20585;-77
2023/03/17 11:13:30;;;;;;;3.10;1.80;;;15.60;53.10;;;;;;5973298;24;20604;-74
2023/03/17 11:16:18;;;;;;;4.50;2.13;;;15.60;53.60;;;;;;5975536;24;20216;-74
2023/03/17 11:18:49;;;;;;;5.50;2.03;;;15.60;53.40;;;;;;5969766;24;20173;-75
2023/03/17 11:21:23;;;;;;;3.90;2.17;;;15.50;52.60;;;;;;5973913;24;20222;-76
2023/03/17 11:23:53;;;;;;;5.00;2.07;;;15.50;50.80;;;;;;5973535;24;20165;-74
2023/03/17 11:26:48;;;;;;;4.40;2.20;;;15.50;51.50;;;;;;5974664;24;20181;-75
2023/03/17 11:29:37;;;;;;;9.87;2.23;;;15.50;52.00;;;;;;5971426;24;20635;-74
2023/03/17 11:32:20;;;;;;;7.03;2.57;;;15.50;52.50;;;;;;6034861;23;20203;-74
2023/03/17 11:35:12;;;;;;;4.50;2.50;;;15.50;52.10;;;;;;6060076;23;20228;-74
2023/03/17 11:38:03;;;;;;;5.13;2.13;;;15.50;52.30;;;;;;6062841;23;20680;-74
2023/03/17 11:40:36;;;;;;;3.90;2.33;;;15.60;52.00;;;;;;6063967;23;20222;-73
2023/03/17 11:43:23;;;;;;;4.67;2.27;;;15.60;51.90;;;;;;6062982;23;20545;-74
2023/03/17 11:45:57;;;;;;;6.70;3.60;;;15.70;52.00;;;;;;6064950;23;20174;-73
2023/03/17 11:48:39;;;;;;;8.60;3.67;;;15.70;52.40;;;;;;6063080;23;20242;-74
2023/03/17 11:51:16;;;;;;;5.77;3.20;;;15.70;52.00;;;;;;6061388;23;20231;-76
2023/03/17 11:54:02;;;;;;;8.93;4.07;;;15.70;52.70;;;;;;6064132;23;20170;-74
2023/03/17 11:56:39;;;;;;;5.60;3.07;;;15.70;52.10;;;;;;6064560;23;20727;-74
2023/03/17 11:59:15;;;;;;;7.33;3.50;;;15.60;51.20;;;;;;6064504;23;20218;-75
2023/03/17 12:01:53;;;;;;;6.30;3.30;;;15.60;51.60;;;;;;6063875;23;20223;-74
2023/03/17 12:04:29;;;;;;;8.10;3.60;;;15.60;52.00;;;;;;6063661;23;20678;-74
2023/03/17 12:07:07;;;;;;;7.03;3.90;;;15.60;51.50;;;;;;6061721;23;20226;-74
2023/03/17 12:09:41;;;;;;;8.00;3.17;;;15.70;51.70;;;;;;6064723;23;20191;-74
2023/03/17 12:12:14;;;;;;;8.90;3.73;;;15.70;52.10;;;;;;6064803;23;20167;-74
2023/03/17 12:14:47;;;;;;;6.23;3.20;;;15.80;52.10;;;;;;6064860;23;20258;-73
2023/03/17 12:17:21;;;;;;;5.27;3.07;;;15.70;51.50;;;;;;6064075;23;20563;-73
2023/03/17 12:20:11;;;;;;;5.07;3.40;;;15.60;51.70;;;;;;6062300;23;20245;-73
2023/03/17 12:22:45;;;;;;;5.23;3.43;;;15.60;51.80;;;;;;6064271;23;20159;-73
2023/03/17 12:25:23;;;;;;;6.67;4.13;;;15.50;51.60;;;;;;6065077;23;20482;-74
2023/03/17 12:28:00;;;;;;;8.27;2.90;;;15.40;51.70;;;;;;6063924;23;20628;-73
2023/03/17 12:30:33;;;;;;;7.00;3.50;;;15.30;51.60;;;;;;6063707;23;20166;-76
2023/03/17 12:33:10;;;;;;;5.60;3.23;;;15.30;52.10;;;;;;6060669;23;20171;-73
2023/03/17 12:35:40;;;;;;;7.23;3.10;;;15.20;52.40;;;;;;6059975;23;20198;-73
2023/03/17 12:38:12;;;;;;;8.40;3.57;;;15.10;52.90;;;;;;6063493;23;20178;-73
2023/03/17 12:41:05;;;;;;;6.43;3.67;;;15.10;53.40;;;;;;6066067;23;20171;-74
2023/03/17 12:43:41;;;;;;;8.23;3.87;;;15.00;53.70;;;;;;6065493;23;20174;-74
2023/03/17 12:46:27;;;;;;;8.90;3.80;;;15.00;54.00;;;;;;6064183;23;20162;-75
2023/03/17 12:49:13;;;;;;;7.70;3.03;;;15.00;54.50;;;;;;6065159;23;20174;-74
2023/03/17 12:52:02;;;;;;;6.83;3.40;;;14.90;54.20;;;;;;6063566;23;20605;-76
2023/03/17 12:54:32;;;;;;;5.70;3.23;;;14.80;54.30;;;;;;6063156;23;20609;-73
2023/03/17 12:57:04;;;;;;;11.43;4.57;;;14.80;54.40;;;;;;6063513;23;20211;-73
2023/03/17 12:59:32;;;;;;;8.23;3.50;;;14.70;54.10;;;;;;6065880;23;20198;-74
2023/03/17 13:02:15;;;;;;;8.33;4.43;;;14.60;54.10;;;;;;6065796;23;20567;-73
2023/03/17 13:04:52;;;;;;;6.77;4.17;;;14.60;54.40;;;;;;6064026;23;20551;-74
2023/03/17 13:08:09;;;;;;;7.37;4.03;;;14.50;54.80;;;;;;6062107;23;20675;-74